Time;durP1;ratioP1;P1;durP2;ratioP2;P2;SDS_P1;SDS_P2;PMS_P1;PMS_P2;Temp;Humidity;BMP_temperature;BMP_pressure;BME280_temperature;BME280_humidity;BME280_pressure;Samples;Min_cycle;Max_cycle;Signal;HPM_P1;HPM_P2
2022/12/09 00:00:35;;;;;;;4.23;2.10;;;;;;;-0.41;100.00;100024.50;5025082;28;20219;-73
2022/12/09 00:03:03;;;;;;;3.57;2.40;;;;;;;-0.41;100.00;100028.78;5012348;28;20200;-72
2022/12/09 00:05:29;;;;;;;2.97;2.20;;;;;;;-0.42;100.00;100024.53;5027383;28;20468;-72
2022/12/09 00:07:56;;;;;;;4.23;2.43;;;;;;;-0.42;100.00;100019.41;5024299;28;20200;-72
2022/12/09 00:10:22;;;;;;;2.83;2.10;;;;;;;-0.42;100.00;100022.81;5028167;28;20215;-72
2022/12/09 00:12:48;;;;;;;3.53;2.30;;;;;;;-0.43;100.00;100026.22;5012137;28;20216;-71
2022/12/09 00:15:15;;;;;;;6.30;2.83;;;;;;;-0.44;100.00;100026.19;5026601;28;20207;-73
2022/12/09 00:17:41;;;;;;;2.97;2.30;;;;;;;-0.41;100.00;100031.34;5025967;28;20199;-71
2022/12/09 00:20:11;;;;;;;5.07;2.60;;;;;;;-0.43;100.00;100022.81;5023387;28;20242;-72
2022/12/09 00:22:37;;;;;;;3.07;2.03;;;;;;;-0.42;100.00;100030.50;5014089;28;20227;-73
2022/12/09 00:25:04;;;;;;;4.00;2.60;;;;;;;-0.41;100.00;100033.91;5027791;28;20292;-72
2022/12/09 00:27:30;;;;;;;3.23;2.10;;;;;;;-0.45;100.00;100025.34;5027870;28;20210;-73
2022/12/09 00:29:57;;;;;;;4.50;3.00;;;;;;;-0.44;100.00;100023.63;5011058;28;20245;-72
2022/12/09 00:32:24;;;;;;;3.73;2.60;;;;;;;-0.42;100.00;100020.25;5015276;28;20223;-73
2022/12/09 00:34:50;;;;;;;3.10;2.30;;;;;;;-0.41;100.00;100027.06;5025594;28;20192;-73
2022/12/09 00:37:18;;;;;;;3.17;2.23;;;;;;;-0.42;100.00;100027.09;5026862;28;20200;-72
2022/12/09 00:39:45;;;;;;;4.40;2.40;;;;;;;-0.41;100.00;100028.78;5010655;28;20228;-71
2022/12/09 00:42:11;;;;;;;4.87;2.93;;;;;;;-0.38;100.00;100028.81;5010939;28;20213;-73
2022/12/09 00:44:38;;;;;;;4.90;2.87;;;;;;;-0.40;100.00;100023.69;5012249;28;20200;-72
2022/12/09 00:47:04;;;;;;;4.17;2.53;;;;;;;-0.40;100.00;100035.63;5013376;28;20633;-72
2022/12/09 00:49:31;;;;;;;3.70;2.67;;;;;;;-0.40;100.00;100030.53;5029284;28;20305;-72
2022/12/09 00:51:57;;;;;;;4.33;3.00;;;;;;;-0.42;100.00;100022.81;5012760;28;20187;-73
2022/12/09 00:54:25;;;;;;;6.50;3.73;;;;;;;-0.40;100.00;100028.81;5028119;28;20207;-72
2022/12/09 00:56:51;;;;;;;5.20;3.27;;;;;;;-0.43;100.00;100023.66;5026088;28;20581;-72
2022/12/09 00:59:17;;;;;;;4.83;3.17;;;;;;;-0.42;100.00;100034.78;5029851;28;20319;-73
2022/12/09 01:01:44;;;;;;;6.37;3.40;;;;;;;-0.42;100.00;100035.63;5022977;28;20937;-72
2022/12/09 01:04:10;;;;;;;5.37;3.03;;;;;;;-0.44;100.00;100037.31;5026647;28;20203;-73
2022/12/09 01:06:37;;;;;;;4.53;2.87;;;;;;;-0.44;100.00;100036.44;5028149;28;20200;-73
2022/12/09 01:09:03;;;;;;;5.77;3.03;;;;;;;-0.44;100.00;100044.13;5027188;28;20235;-73
2022/12/09 01:11:31;;;;;;;5.77;3.00;;;;;;;-0.42;100.00;100042.47;5012583;28;20211;-72
2022/12/09 01:13:59;;;;;;;5.13;2.97;;;;;;;-0.42;100.00;100043.31;5026699;28;20193;-72
2022/12/09 01:16:29;;;;;;;4.13;2.77;;;;;;;-0.42;100.00;100042.47;5025829;28;20204;-73
2022/12/09 01:18:58;;;;;;;4.53;3.20;;;;;;;-0.42;100.00;100042.47;5011424;28;20224;-72
2022/12/09 01:21:25;;;;;;;4.57;2.90;;;;;;;-0.41;100.00;100044.16;5027186;28;20235;-71
2022/12/09 01:23:52;;;;;;;5.07;3.50;;;;;;;-0.41;100.00;100046.72;5027439;28;20200;-74
2022/12/09 01:26:18;;;;;;;5.50;3.20;;;;;;;-0.40;100.00;100040.75;5028779;28;20208;-73
2022/12/09 01:28:51;;;;;;;4.93;3.30;;;;;;;-0.39;100.00;100048.47;5012902;28;20224;-73
2022/12/09 01:31:20;;;;;;;6.80;3.60;;;;;;;-0.38;100.00;100039.06;5026256;28;20197;-73
2022/12/09 01:33:47;;;;;;;6.20;3.37;;;;;;;-0.39;100.00;100040.78;5011349;28;20208;-72
2022/12/09 01:36:17;;;;;;;5.00;3.33;;;;;;;-0.38;100.00;100041.63;5007029;28;20212;-74
2022/12/09 01:38:45;;;;;;;5.30;3.27;;;;;;;-0.38;100.00;100039.91;5006452;28;20696;-72
2022/12/09 01:41:11;;;;;;;5.40;3.50;;;;;;;-0.38;100.00;100037.34;5009558;28;20227;-72
2022/12/09 01:43:38;;;;;;;5.87;3.37;;;;;;;-0.41;100.00;100045.00;5011950;28;20200;-72
2022/12/09 01:46:06;;;;;;;4.07;2.63;;;;;;;-0.41;100.00;100046.72;5011540;28;20727;-73
2022/12/09 01:48:36;;;;;;;4.97;3.30;;;;;;;-0.40;100.00;100040.75;5028483;28;20216;-73
2022/12/09 01:51:07;;;;;;;4.67;2.93;;;;;;;-0.41;100.00;100037.31;5023662;28;20203;-73
2022/12/09 01:53:37;;;;;;;5.57;3.00;;;;;;;-0.43;100.00;100041.56;5025663;28;20206;-72
2022/12/09 01:56:10;;;;;;;5.73;3.23;;;;;;;-0.46;100.00;100036.44;5009353;28;20348;-72
2022/12/09 01:58:36;;;;;;;3.93;2.83;;;;;;;-0.47;100.00;100044.13;5003948;28;20295;-72
2022/12/09 02:01:03;;;;;;;5.60;3.53;;;;;;;-0.49;100.00;100038.97;5008945;28;20216;-72
2022/12/09 02:03:31;;;;;;;6.20;3.20;;;;;;;-0.44;100.00;100039.00;5012029;28;20231;-73
2022/12/09 02:05:57;;;;;;;6.37;3.40;;;;;;;-0.43;100.00;100045.84;5018335;28;20200;-73
2022/12/09 02:08:24;;;;;;;3.67;2.63;;;;;;;-0.45;100.00;100033.03;5012727;28;20250;-72
2022/12/09 02:11:05;;;;;;;5.63;3.27;;;;;;;-0.47;100.00;100037.28;5002491;28;20200;-73
2022/12/09 02:13:47;;;;;;;5.30;3.00;;;;;;;-0.49;100.00;100041.53;5025666;28;20573;-73
2022/12/09 02:16:18;;;;;;;6.47;3.40;;;;;;;-0.49;100.00;100044.09;5006767;28;20224;-72
2022/12/09 02:18:53;;;;;;;5.83;3.20;;;;;;;-0.50;100.00;100037.25;5026184;28;20280;-71
2022/12/09 02:21:29;;;;;;;4.07;2.73;;;;;;;-0.50;100.00;100041.53;5012470;28;20211;-73
2022/12/09 02:24:02;;;;;;;5.43;3.03;;;;;;;-0.53;100.00;100033.81;5006274;28;20214;-73
2022/12/09 02:26:38;;;;;;;7.67;3.53;;;;;;;-0.51;100.00;100037.22;5009061;28;20191;-73
2022/12/09 02:29:25;;;;;;;6.17;3.33;;;;;;;-0.55;100.00;100040.63;5024702;28;20289;-73
2022/12/09 02:32:14;;;;;;;6.30;3.77;;;;;;;-0.55;100.00;100043.16;5024311;28;20188;-73
2022/12/09 02:34:48;;;;;;;5.77;3.50;;;;;;;-0.58;100.00;100044.88;5025308;28;20198;-72
2022/12/09 02:37:19;;;;;;;6.03;3.73;;;;;;;-0.59;100.00;100045.69;5003560;28;20203;-72
2022/12/09 02:39:54;;;;;;;8.10;3.60;;;;;;;-0.57;100.00;100040.59;5022665;28;20251;-71
2022/12/09 02:42:27;;;;;;;5.37;3.20;;;;;;;-0.59;100.00;100048.25;5025416;28;20247;-73
2022/12/09 02:44:57;;;;;;;5.27;2.77;;;;;;;-0.55;100.00;100045.72;5009754;28;20289;-71
2022/12/09 02:47:27;;;;;;;4.90;3.17;;;;;;;-0.59;100.00;100039.72;5008534;28;20272;-72
2022/12/09 02:50:00;;;;;;;6.87;3.47;;;;;;;-0.58;100.00;100042.31;5008149;28;20251;-73
2022/12/09 02:52:33;;;;;;;5.97;3.70;;;;;;;-0.57;100.00;100044.00;5024685;28;20278;-73
2022/12/09 02:55:02;;;;;;;4.90;2.77;;;;;;;-0.56;100.00;100039.75;5005217;28;20282;-72
2022/12/09 02:57:32;;;;;;;6.30;3.47;;;;;;;-0.57;100.00;100041.44;5011619;28;20206;-72
2022/12/09 02:59:58;;;;;;;6.37;3.43;;;;;;;-0.57;100.00;100044.00;5025526;28;20220;-72
2022/12/09 03:02:29;;;;;;;5.10;3.27;;;;;;;-0.57;100.00;100044.00;5029906;28;20591;-73
2022/12/09 03:05:09;;;;;;;5.53;3.30;;;;;;;-0.57;100.00;100040.59;5029017;28;20650;-73
2022/12/09 03:07:42;;;;;;;5.03;3.30;;;;;;;-0.55;100.00;100040.63;5030329;28;20672;-73
2022/12/09 03:10:15;;;;;;;6.47;3.47;;;;;;;-0.55;100.00;100038.06;5026632;28;20214;-73
2022/12/09 03:12:47;;;;;;;8.03;3.80;;;;;;;-0.54;100.00;100044.91;5010475;28;20652;-73
2022/12/09 03:15:16;;;;;;;7.07;3.73;;;;;;;-0.51;100.00;100038.09;5028494;28;20207;-72
2022/12/09 03:17:44;;;;;;;6.00;3.70;;;;;;;-0.51;100.00;100038.09;5026493;28;20211;-73
2022/12/09 03:20:16;;;;;;;5.57;3.27;;;;;;;-0.50;100.00;100041.53;5029939;28;20587;-72
2022/12/09 03:22:46;;;;;;;5.60;3.90;;;;;;;-0.47;100.00;100029.59;5029202;28;20197;-72
2022/12/09 03:25:17;;;;;;;5.53;3.47;;;;;;;-0.47;100.00;100026.19;5031479;28;20199;-72
2022/12/09 03:27:50;;;;;;;5.67;3.73;;;;;;;-0.48;100.00;100019.34;5032436;28;20200;-72
2022/12/09 03:30:17;;;;;;;5.73;3.80;;;;;;;-0.47;100.00;100021.06;5031841;28;20220;-73
2022/12/09 03:32:45;;;;;;;6.97;4.03;;;;;;;-0.48;100.00;100027.88;5029862;28;20596;-73
2022/12/09 03:35:18;;;;;;;7.53;4.03;;;;;;;-0.45;100.00;100024.50;5033544;28;20282;-73
2022/12/09 03:37:46;;;;;;;6.57;3.50;;;;;;;-0.46;100.00;100031.31;5025891;28;20653;-71
2022/12/09 03:40:17;;;;;;;6.00;3.63;;;;;;;-0.47;100.00;100028.75;5014841;28;20305;-73
2022/12/09 03:42:49;;;;;;;6.17;3.60;;;;;;;-0.45;100.00;100024.50;5029894;28;20232;-72
2022/12/09 03:45:17;;;;;;;7.73;3.97;;;;;;;-0.45;100.00;100022.78;5029701;28;20205;-73
2022/12/09 03:47:44;;;;;;;9.13;4.87;;;;;;;-0.45;100.00;100016.81;5031431;28;20204;-74
2022/12/09 03:50:13;;;;;;;14.10;7.50;;;;;;;-0.45;100.00;100027.06;5028430;28;20227;-71
2022/12/09 03:52:43;;;;;;;13.57;6.83;;;;;;;-0.46;100.00;100018.53;5026027;28;20200;-73
2022/12/09 03:55:18;;;;;;;13.60;7.17;;;;;;;-0.42;100.00;100021.97;5030669;28;20200;-72
2022/12/09 03:57:47;;;;;;;10.03;5.70;;;;;;;-0.43;100.00;100017.69;5008533;28;20204;-71
2022/12/09 04:00:13;;;;;;;9.50;4.87;;;;;;;-0.49;100.00;100013.38;5030143;28;20228;-73
2022/12/09 04:02:40;;;;;;;7.40;3.87;;;;;;;-0.50;100.00;100018.47;5031141;28;20228;-73
2022/12/09 04:05:07;;;;;;;7.27;4.17;;;;;;;-0.50;100.00;100018.47;5009107;28;20199;-73
2022/12/09 04:07:35;;;;;;;6.60;4.00;;;;;;;-0.48;100.00;100025.31;5029278;28;20227;-73
2022/12/09 04:10:01;;;;;;;6.17;4.10;;;;;;;-0.49;100.00;100017.59;5027031;28;20327;-73
2022/12/09 04:12:28;;;;;;;6.47;3.53;;;;;;;-0.52;100.00;100021.00;5025437;28;20211;-73
2022/12/09 04:14:54;;;;;;;6.77;4.10;;;;;;;-0.53;100.00;100015.88;5008466;28;20223;-73
2022/12/09 04:17:21;;;;;;;8.57;4.20;;;;;;;-0.50;100.00;100019.31;5026415;28;20298;-72
2022/12/09 04:19:47;;;;;;;7.43;4.70;;;;;;;-0.50;100.00;100015.91;5022305;28;20231;-73
2022/12/09 04:22:14;;;;;;;9.77;4.93;;;;;;;-0.49;100.00;100012.47;5024929;28;20216;-72
2022/12/09 04:24:41;;;;;;;8.20;4.37;;;;;;;-0.51;100.00;100014.19;5026980;28;20195;-72
2022/12/09 04:27:10;;;;;;;7.30;4.07;;;;;;;-0.51;100.00;100015.06;5023814;28;20199;-73
2022/12/09 04:29:37;;;;;;;10.13;4.77;;;;;;;-0.50;100.00;100021.03;5010329;28;20220;-72
2022/12/09 04:32:04;;;;;;;7.27;4.70;;;;;;;-0.50;100.00;100014.19;5025328;28;20203;-72
2022/12/09 04:34:32;;;;;;;13.40;6.83;;;;;;;-0.46;100.00;100020.19;5031976;28;20812;-73
2022/12/09 04:36:58;;;;;;;11.87;6.93;;;;;;;-0.46;100.00;100020.19;5029284;28;20201;-73
2022/12/09 04:39:24;;;;;;;9.67;5.80;;;;;;;-0.45;100.00;100011.69;5027700;28;20239;-73
2022/12/09 04:41:52;;;;;;;11.47;6.00;;;;;;;-0.44;100.00;100010.81;5025766;28;20863;-72
2022/12/09 04:44:19;;;;;;;10.17;5.60;;;;;;;-0.44;100.00;100005.69;5028099;28;20205;-73
2022/12/09 04:46:45;;;;;;;9.47;6.03;;;;;;;-0.43;100.00;100010.00;5026330;28;20233;-73
2022/12/09 04:49:13;;;;;;;11.37;7.30;;;;;;;-0.43;100.00;100017.69;5030002;28;20250;-72
2022/12/09 04:51:40;;;;;;;11.20;7.10;;;;;;;-0.44;100.00;100023.63;5026883;28;20201;-71
2022/12/09 04:54:07;;;;;;;11.53;6.30;;;;;;;-0.45;100.00;100020.22;5025794;28;20203;-72
2022/12/09 04:56:33;;;;;;;9.77;5.63;;;;;;;-0.44;100.00;100019.38;5026460;28;20250;-73
2022/12/09 04:59:02;;;;;;;7.53;4.83;;;;;;;-0.42;100.00;100017.69;5028088;28;20224;-72
2022/12/09 05:01:29;;;;;;;9.23;5.13;;;;;;;-0.41;100.00;100023.66;5028366;28;20576;-73
2022/12/09 05:03:55;;;;;;;9.30;5.40;;;;;;;-0.36;100.00;100023.72;5025656;28;20217;-73
2022/12/09 05:06:22;;;;;;;9.57;5.40;;;;;;;-0.32;100.00;100018.63;5029728;28;20631;-73
2022/12/09 05:08:49;;;;;;;9.07;5.17;;;;;;;-0.30;100.00;100029.75;5008218;28;20234;-73
2022/12/09 05:11:15;;;;;;;9.03;4.90;;;;;;;-0.31;100.00;100020.34;5024106;28;20284;-73
2022/12/09 05:13:42;;;;;;;8.70;5.43;;;;;;;-0.29;100.00;100028.91;5028358;28;20199;-73
2022/12/09 05:16:13;;;;;;;10.33;6.67;;;;;;;-0.28;100.00;100019.50;5024775;28;20291;-72
2022/12/09 05:18:40;;;;;;;9.57;6.40;;;;;;;-0.29;100.00;100021.22;5008826;28;20776;-73
2022/12/09 05:21:08;;;;;;;12.67;6.17;;;;;;;-0.32;100.00;100017.75;5027301;28;20201;-72
2022/12/09 05:23:35;;;;;;;14.80;7.00;;;;;;;-0.32;100.00;100022.88;5029655;28;20200;-71
2022/12/09 05:26:03;;;;;;;15.33;7.07;;;;;;;-0.33;100.00;100026.31;5029198;28;20203;-72
2022/12/09 05:28:29;;;;;;;10.90;5.73;;;;;;;-0.35;100.00;100026.28;5028361;28;20199;-72
2022/12/09 05:30:59;;;;;;;13.07;6.67;;;;;;;-0.35;100.00;100030.53;5022729;28;20215;-72
2022/12/09 05:33:27;;;;;;;11.03;5.87;;;;;;;-0.35;100.00;100031.41;5030403;28;20200;-73
2022/12/09 05:35:53;;;;;;;11.67;5.27;;;;;;;-0.33;100.00;100034.00;5026383;28;20680;-72
2022/12/09 05:38:20;;;;;;;11.00;6.17;;;;;;;-0.32;100.00;100031.44;5029786;28;20284;-71
2022/12/09 05:40:46;;;;;;;14.43;6.13;;;;;;;-0.29;100.00;100026.34;5025862;28;20967;-71
2022/12/09 05:43:13;;;;;;;13.07;6.53;;;;;;;-0.31;100.00;100020.34;5026150;28;20223;-72
2022/12/09 05:45:39;;;;;;;14.40;6.07;;;;;;;-0.30;100.00;100028.88;5006138;28;20293;-72
2022/12/09 05:48:06;;;;;;;12.87;6.60;;;;;;;-0.31;100.00;100027.19;5008389;28;20208;-73
2022/12/09 05:50:34;;;;;;;15.97;7.00;;;;;;;-0.31;100.00;100032.31;5009686;28;20314;-72
2022/12/09 05:53:00;;;;;;;14.67;6.33;;;;;;;-0.35;100.00;100031.41;5026347;28;20207;-72
2022/12/09 05:55:27;;;;;;;16.30;7.80;;;;;;;-0.36;100.00;100027.13;5025612;28;20559;-71
2022/12/09 05:57:53;;;;;;;15.73;7.00;;;;;;;-0.37;100.00;100020.28;5024455;28;20465;-71
2022/12/09 06:00:21;;;;;;;18.23;7.63;;;;;;;-0.40;100.00;100020.28;5016592;28;20216;-72
2022/12/09 06:02:47;;;;;;;18.27;8.10;;;;;;;-0.43;100.00;100031.34;5013232;28;20619;-72
2022/12/09 06:05:14;;;;;;;20.07;9.23;;;;;;;-0.44;100.00;100032.19;5023105;28;20254;-71
2022/12/09 06:07:41;;;;;;;17.40;7.57;;;;;;;-0.46;100.00;100025.31;5023279;28;20204;-72
2022/12/09 06:10:08;;;;;;;13.07;6.77;;;;;;;-0.48;100.00;100029.59;5020578;28;20234;-72
2022/12/09 06:12:35;;;;;;;14.70;7.03;;;;;;;-0.52;100.00;100031.25;5021640;28;20206;-73
2022/12/09 06:15:01;;;;;;;23.40;8.90;;;;;;;-0.57;100.00;100020.97;5008105;28;20268;-72
2022/12/09 06:17:27;;;;;;;17.23;8.23;;;;;;;-0.61;100.00;100019.22;5020764;28;20208;-71
2022/12/09 06:19:54;;;;;;;14.93;7.83;;;;;;;-0.65;100.00;100021.72;5016347;28;20228;-73
2022/12/09 06:22:20;;;;;;;16.43;7.07;;;;;;;-0.68;100.00;100021.72;5021055;28;20219;-72
2022/12/09 06:24:48;;;;;;;15.07;6.77;;;;;;;-0.69;100.00;100022.53;5024399;28;20204;-72
2022/12/09 06:27:15;;;;;;;12.27;5.80;;;;;;;-0.70;100.00;100024.25;5021178;28;20207;-71
2022/12/09 06:29:41;;;;;;;14.80;7.03;;;;;;;-0.73;100.00;100021.66;5020745;28;20241;-72
2022/12/09 06:32:08;;;;;;;13.40;6.57;;;;;;;-0.75;100.00;100023.34;5019043;28;20196;-72
2022/12/09 06:34:34;;;;;;;12.03;6.27;;;;;;;-0.75;100.00;100031.03;5023298;28;20218;-72
2022/12/09 06:37:00;;;;;;;15.57;7.13;;;;;;;-0.75;100.00;100023.34;5021440;28;20192;-72
2022/12/09 06:39:27;;;;;;;14.47;6.50;;;;;;;-0.75;100.00;100017.38;5025116;28;20247;-72
2022/12/09 06:41:54;;;;;;;12.90;7.03;;;;;;;-0.78;100.00;100008.81;5021576;28;20226;-70
2022/12/09 06:44:21;;;;;;;16.40;7.67;;;;;;;-0.78;100.00;100016.47;5020296;28;20230;-71
2022/12/09 06:46:47;;;;;;;16.93;8.23;;;;;;;-0.82;100.00;100022.41;5024308;28;20196;-73
2022/12/09 06:49:13;;;;;;;18.90;8.00;;;;;;;-0.84;100.00;100021.56;5023032;28;20699;-71
2022/12/09 06:51:40;;;;;;;12.93;6.60;;;;;;;-0.87;100.00;100024.06;5025569;28;20234;-72
2022/12/09 06:54:08;;;;;;;16.73;7.40;;;;;;;-0.88;100.00;100024.06;5022521;28;20196;-72
2022/12/09 06:56:35;;;;;;;20.60;7.97;;;;;;;-0.90;100.00;100033.41;5031981;28;20587;-72
2022/12/09 06:59:05;;;;;;;21.27;8.57;;;;;;;-0.91;100.00;100030.00;5023035;28;20276;-73
2022/12/09 07:01:32;;;;;;;16.23;7.33;;;;;;;-0.91;100.00;100041.97;5022831;28;20201;-73
2022/12/09 07:03:58;;;;;;;17.93;7.47;;;;;;;-0.90;100.00;100041.09;5021438;28;20392;-74
2022/12/09 07:06:27;;;;;;;17.37;7.40;;;;;;;-0.87;100.00;100046.25;5030638;28;20207;-73
2022/12/09 07:08:54;;;;;;;32.00;8.30;;;;;;;-0.85;100.00;100042.84;5026819;28;20231;-73
2022/12/09 07:11:20;;;;;;;23.70;7.50;;;;;;;-0.90;100.00;100049.63;5020692;28;20624;-73
2022/12/09 07:13:47;;;;;;;20.00;8.57;;;;;;;-0.86;100.00;100043.72;5006973;28;20777;-73
2022/12/09 07:16:15;;;;;;;15.97;6.90;;;;;;;-0.88;100.00;100044.53;5024712;28;20691;-73
2022/12/09 07:18:41;;;;;;;25.57;7.70;;;;;;;-0.84;100.00;100039.47;5025631;28;20968;-73
2022/12/09 07:21:08;;;;;;;19.77;7.27;;;;;;;-0.85;100.00;100045.41;5026550;28;20218;-72
2022/12/09 07:23:35;;;;;;;21.97;7.23;;;;;;;-0.87;100.00;100039.44;5031427;28;20216;-72
2022/12/09 07:26:01;;;;;;;33.30;8.03;;;;;;;-0.86;100.00;100041.16;5008124;28;20215;-72
2022/12/09 07:28:28;;;;;;;16.93;6.53;;;;;;;-0.84;100.00;100046.31;5009536;28;20196;-73
2022/12/09 07:30:54;;;;;;;25.03;7.30;;;;;;;-0.87;100.00;100042.00;5027599;28;20544;-72
2022/12/09 07:33:22;;;;;;;25.50;7.53;;;;;;;-0.80;100.00;100042.91;5029080;28;20291;-73
2022/12/09 07:35:48;;;;;;;31.77;7.73;;;;;;;-0.82;100.00;100037.78;5023718;28;20700;-73
2022/12/09 07:38:15;;;;;;;24.50;7.33;;;;;;;-0.85;100.00;100037.75;5023893;28;20264;-73
2022/12/09 07:40:41;;;;;;;26.53;7.87;;;;;;;-0.83;100.00;100045.44;5011268;28;20215;-74
2022/12/09 07:43:07;;;;;;;26.00;8.00;;;;;;;-0.85;100.00;100050.53;5027728;28;20303;-74
2022/12/09 07:45:34;;;;;;;19.90;8.83;;;;;;;-0.80;100.00;100048.88;5006213;28;20195;-73
2022/12/09 07:48:01;;;;;;;26.30;7.50;;;;;;;-0.76;100.00;100044.66;5025867;28;20195;-73
2022/12/09 07:50:28;;;;;;;27.63;7.70;;;;;;;-0.75;100.00;100053.22;5027492;28;20222;-73
2022/12/09 07:52:55;;;;;;;27.67;8.73;;;;;;;-0.75;100.00;100043.84;5020996;28;20247;-73
2022/12/09 07:55:21;;;;;;;26.67;8.17;;;;;;;-0.70;100.00;100051.53;5024430;28;20200;-73
2022/12/09 07:57:48;;;;;;;40.33;9.10;;;;;;;-0.67;100.00;100044.78;5024727;28;20207;-74
2022/12/09 08:00:15;;;;;;;29.40;9.67;;;;;;;-0.67;100.00;100044.78;5022617;28;20221;-74
2022/12/09 08:02:42;;;;;;;49.77;9.83;;;;;;;-0.66;100.00;100051.59;5023964;28;20221;-74
2022/12/09 08:05:09;;;;;;;36.83;9.10;;;;;;;-0.67;100.00;100047.34;5023865;28;20204;-74
2022/12/09 08:07:36;;;;;;;25.77;9.37;;;;;;;-0.61;100.00;100046.53;5026154;28;20308;-72
2022/12/09 08:10:03;;;;;;;27.73;9.13;;;;;;;-0.58;100.00;100047.44;5024941;28;20216;-74
2022/12/09 08:12:29;;;;;;;20.53;9.50;;;;;;;-0.55;100.00;100050.84;5021303;28;20718;-72
2022/12/09 08:14:56;;;;;;;27.67;10.33;;;;;;;-0.52;100.00;100049.19;5023261;28;20491;-74
2022/12/09 08:17:23;;;;;;;30.07;10.83;;;;;;;-0.51;100.00;100053.47;5024281;28;20776;-74
2022/12/09 08:19:50;;;;;;;27.97;12.13;;;;;;;-0.48;100.00;100053.47;5025291;28;20226;-74
2022/12/09 08:22:17;;;;;;;27.23;9.97;;;;;;;-0.46;100.00;100053.50;5008342;28;20216;-73
2022/12/09 08:24:44;;;;;;;26.03;11.47;;;;;;;-0.43;100.00;100051.81;5022953;28;21207;-74
2022/12/09 08:27:11;;;;;;;28.43;10.13;;;;;;;-0.39;100.00;100052.72;5024077;28;20685;-73
2022/12/09 08:29:37;;;;;;;24.50;9.93;;;;;;;-0.38;100.00;100049.31;5008771;28;20256;-72
2022/12/09 08:32:04;;;;;;;22.13;9.13;;;;;;;-0.37;100.00;100056.13;5024151;28;20192;-74
2022/12/09 08:34:30;;;;;;;25.43;10.27;;;;;;;-0.34;100.00;100053.63;5027330;28;20204;-73
2022/12/09 08:36:57;;;;;;;24.83;9.87;;;;;;;-0.28;100.00;100060.50;5024799;28;20210;-74
2022/12/09 08:39:26;;;;;;;30.37;9.63;;;;;;;-0.28;100.00;100052.81;5009203;28;20235;-74
2022/12/09 08:41:54;;;;;;;27.63;10.67;;;;;;;-0.28;100.00;100055.38;5025582;28;20218;-74
2022/12/09 08:44:21;;;;;;;30.30;10.83;;;;;;;-0.30;100.00;100052.81;5006363;28;20235;-73
2022/12/09 08:46:49;;;;;;;21.50;8.33;;;;;;;-0.26;100.00;100053.69;5023454;28;20197;-73
2022/12/09 08:49:18;;;;;;;24.97;10.17;;;;;;;-0.23;100.00;100059.72;5026956;28;20217;-73
2022/12/09 08:51:49;;;;;;;31.07;11.27;;;;;;;-0.25;100.00;100056.25;5025558;28;20218;-74
2022/12/09 08:54:16;;;;;;;25.23;9.60;;;;;;;-0.26;100.00;100058.81;5009569;28;20228;-74
2022/12/09 08:56:44;;;;;;;24.87;10.00;;;;;;;-0.26;100.00;100058.81;5023820;28;20208;-73
2022/12/09 08:59:11;;;;;;;27.67;10.47;;;;;;;-0.27;100.00;100063.06;5026820;28;20219;-74
2022/12/09 09:01:38;;;;;;;21.53;8.20;;;;;;;-0.24;100.00;100063.09;5025662;28;20204;-74
2022/12/09 09:04:07;;;;;;;20.43;9.00;;;;;;;-0.17;100.00;100065.75;5022429;28;20233;-73
2022/12/09 09:06:34;;;;;;;21.60;8.70;;;;;;;-0.14;100.00;100058.94;5025975;28;20198;-73
2022/12/09 09:09:00;;;;;;;22.43;9.97;;;;;;;-0.13;100.00;100064.91;5025644;28;20722;-72
2022/12/09 09:11:27;;;;;;;23.87;9.13;;;;;;;-0.09;100.00;100064.06;5022817;28;20216;-74
2022/12/09 09:13:53;;;;;;;17.90;7.97;;;;;;;-0.09;100.00;100070.09;5020116;28;20196;-72
2022/12/09 09:16:23;;;;;;;17.37;7.73;;;;;;;-0.08;100.00;100063.25;5022291;28;20203;-72
2022/12/09 09:18:50;;;;;;;22.40;9.40;;;;;;;-0.01;100.00;100063.28;5025630;28;20585;-73
2022/12/09 09:21:20;;;;;;;24.37;9.43;;;;;;;-0.02;100.00;100063.28;5027192;28;20203;-74
2022/12/09 09:23:47;;;;;;;20.00;8.47;;;;;;;-0.01;100.00;100062.44;5023323;28;20231;-74
2022/12/09 09:26:16;;;;;;;24.03;11.93;;;;;;;0.05;100.00;100057.34;5022911;28;20192;-74
2022/12/09 09:28:43;;;;;;;21.30;9.23;;;;;;;0.03;100.00;100053.06;5021958;28;20771;-72
2022/12/09 09:31:12;;;;;;;29.47;13.50;;;;;;;0.02;100.00;100062.47;5024833;28;20227;-74
2022/12/09 09:33:41;;;;;;;19.83;9.47;;;;;;;0.08;100.00;100061.66;5027268;28;20200;-72
2022/12/09 09:36:11;;;;;;;26.07;11.57;;;;;;;0.03;100.00;100061.63;5020636;28;20520;-72
2022/12/09 09:38:38;;;;;;;19.40;9.43;;;;;;;0.03;100.00;100055.63;5027520;28;20220;-74
2022/12/09 09:41:16;;;;;;;22.37;9.30;;;;;;;0.07;100.00;100054.81;5021640;28;21980;-74
2022/12/09 09:43:43;;;;;;;25.03;10.53;;;;;;;0.08;100.00;100064.22;5004669;28;20209;-74
2022/12/09 09:46:17;;;;;;;23.67;10.57;;;;;;;0.08;100.00;100054.81;5009345;28;20200;-73
2022/12/09 09:48:46;;;;;;;20.87;9.90;;;;;;;0.09;100.00;100059.09;5030396;28;20662;-72
2022/12/09 09:51:15;;;;;;;24.80;10.37;;;;;;;0.09;100.00;100053.97;5008610;28;20204;-74
2022/12/09 09:53:42;;;;;;;19.03;9.30;;;;;;;0.12;100.00;100051.44;5027083;28;20211;-74
2022/12/09 09:56:26;;;;;;;19.73;9.70;;;;;;;0.12;100.00;100046.31;5025057;28;20330;-74
2022/12/09 09:59:00;;;;;;;16.63;8.43;;;;;;;0.12;100.00;100042.88;5026622;28;20219;-73
2022/12/09 10:01:33;;;;;;;21.73;8.90;;;;;;;0.17;100.00;100042.06;5008878;28;20216;-72
2022/12/09 10:04:09;;;;;;;22.87;10.23;;;;;;;0.23;100.00;100046.41;5020142;28;20222;-73
2022/12/09 10:06:45;;;;;;;19.10;8.13;;;;;;;0.21;100.00;100034.41;5024680;28;20222;-73
2022/12/09 10:09:17;;;;;;;18.77;8.77;;;;;;;0.23;100.00;100037.81;5025820;28;20223;-73
2022/12/09 10:11:54;;;;;;;16.23;6.73;;;;;;;0.21;100.00;100035.25;5029677;28;20211;-73
2022/12/09 10:14:29;;;;;;;17.30;7.80;;;;;;;0.14;100.00;100031.81;5030135;28;20196;-74
2022/12/09 10:17:06;;;;;;;14.30;8.00;;;;;;;0.21;100.00;100031.81;5028051;28;20195;-71
2022/12/09 10:19:38;;;;;;;15.60;7.77;;;;;;;0.18;100.00;100027.56;5025481;28;20246;-74
2022/12/09 10:22:11;;;;;;;15.13;7.63;;;;;;;0.22;100.00;100025.88;5028052;28;20579;-74
2022/12/09 10:24:42;;;;;;;16.27;6.33;;;;;;;0.26;100.00;100014.78;5027338;28;20242;-74
2022/12/09 10:27:14;;;;;;;20.83;9.43;;;;;;;0.22;100.00;100008.78;5028906;28;20696;-74
2022/12/09 10:29:53;;;;;;;18.77;8.50;;;;;;;0.24;100.00;100006.22;5026976;28;20733;-72
2022/12/09 10:32:23;;;;;;;26.10;11.97;;;;;;;0.23;100.00;100007.06;5022409;28;20323;-74
2022/12/09 10:34:51;;;;;;;14.57;8.03;;;;;;;0.24;100.00;100007.06;5023726;28;20282;-74
2022/12/09 10:37:25;;;;;;;13.50;7.83;;;;;;;0.26;100.00;99997.66;5025694;28;20200;-73
2022/12/09 10:39:58;;;;;;;13.57;7.10;;;;;;;0.24;100.00;99991.69;5020323;28;20235;-73
2022/12/09 10:45:11;;;;;;;15.53;7.87;;;;;;;0.30;100.00;99988.28;5025560;28;20200;-74
2022/12/09 10:47:38;;;;;;;12.90;7.10;;;;;;;0.33;100.00;99983.19;5007019;28;20213;-74
2022/12/09 10:50:07;;;;;;;13.67;6.60;;;;;;;0.38;100.00;99982.34;5044289;23;20233;-72
2022/12/09 10:52:42;;;;;;;14.17;7.53;;;;;;;0.49;100.00;99981.53;5004092;28;20216;-72
2022/12/09 10:55:21;;;;;;;15.73;6.83;;;;;;;0.47;100.00;99975.56;5024944;28;20901;-72
2022/12/09 10:57:48;;;;;;;14.63;7.13;;;;;;;0.53;100.00;99968.75;5023809;28;20677;-72
2022/12/09 11:00:21;;;;;;;13.57;6.83;;;;;;;0.57;100.00;99973.03;5023577;28;20195;-72
2022/12/09 11:02:51;;;;;;;15.80;7.83;;;;;;;0.53;100.00;99973.03;5017060;28;20216;-71
2022/12/09 11:05:26;;;;;;;14.70;6.90;;;;;;;0.56;100.00;99966.22;5024075;28;20199;-71
2022/12/09 11:07:54;;;;;;;17.60;8.07;;;;;;;0.59;100.00;99962.78;5019519;28;20262;-71
2022/12/09 11:10:22;;;;;;;14.47;7.70;;;;;;;0.53;100.00;99963.63;5019544;28;20208;-71
2022/12/09 11:12:52;;;;;;;15.97;7.37;;;;;;;0.49;100.00;99961.03;5026630;28;20246;-70
2022/12/09 11:15:26;;;;;;;19.03;7.73;;;;;;;0.56;100.00;99961.06;5009726;28;20208;-72
2022/12/09 11:17:59;;;;;;;18.00;7.77;;;;;;;0.55;100.00;99954.22;5026357;28;20202;-73
2022/12/09 11:20:29;;;;;;;14.80;6.90;;;;;;;0.54;100.00;99959.34;5021952;28;20211;-71
2022/12/09 11:23:02;;;;;;;12.90;6.27;;;;;;;0.59;100.00;99951.66;5020053;28;20224;-70